»·PEaware :: N35CF KSNA-KSBA

N35CF :: KSNA-KSBA

FLIGHT INFORMATION

Flight Status: Arrived
Operator: Privately registered:
United States
More flights under this callsign
Pilot: Todd C. (18613)
Aircraft: BEECH AIRCRAFT A90-E90 KING AIR
(BE9L)
More flights by this aircraft type
Origin: KSNA John Wayne-Orange Co
United States
Destination: KSBA Santa Barbara Mun
United States
More flights between these airports :: More routes between these airports
Route: SLI V23 LAX V299 VTU VTU282R KWANG
File this flight plan on PilotEdge
Remarks: CSTP21
Altitude:
(Current/Filed)
6,000ft
Speed:
(Current/Filed)
215kts
Departed: 30-Oct-20 04:11 PM
Arrived: 30-Oct-20 04:46 PM
Distance/Time
Traveled:
108nm/0:35
Distance/Time
To Go:
Arrived

Flight Plot

Page will automatically refresh every two minutes.


Map Options




Map Legend


Flown Route
Filed Route
Departure Airport
Arrival Airport
Navaid (VOR, NDB)
Fix

Horizontal Profiles

Position Reports

Time Latitude Longitude Heading Altitude Ground
Speed
30-Oct-20 15:49 33.672461 -117.867183 208 59ft 0kts
30-Oct-20 15:50 33.672461 -117.867183 208 59ft 0kts
30-Oct-20 15:51 33.672461 -117.867183 208 59ft 0kts
30-Oct-20 15:52 33.672461 -117.867183 208 59ft 0kts
30-Oct-20 15:52 33.672461 -117.867183 208 59ft 0kts
30-Oct-20 15:54 33.672461 -117.867183 208 59ft 0kts
30-Oct-20 15:54 33.672461 -117.867183 208 59ft 0kts
30-Oct-20 15:56 33.672461 -117.867183 208 59ft 0kts
30-Oct-20 15:57 33.672461 -117.867183 208 59ft 0kts
30-Oct-20 15:58 33.672461 -117.867183 208 59ft 0kts
30-Oct-20 15:58 33.672461 -117.867183 208 59ft 0kts
30-Oct-20 15:59 33.672461 -117.867183 208 59ft 0kts
30-Oct-20 16:00 33.672461 -117.867183 208 59ft 0kts
30-Oct-20 16:01 33.672461 -117.867183 208 59ft 0kts
30-Oct-20 16:02 33.672932 -117.867487 46 59ft 8kts
30-Oct-20 16:03 33.675394 -117.865656 27 59ft 12kts
30-Oct-20 16:04 33.679060 -117.863339 27 59ft 17kts
30-Oct-20 16:05 33.680694 -117.863183 297 59ft 0kts
30-Oct-20 16:06 33.680694 -117.863183 297 59ft 0kts
30-Oct-20 16:07 33.680694 -117.863183 297 59ft 0kts
30-Oct-20 16:08 33.680760 -117.863335 297 59ft 4kts
30-Oct-20 16:09 33.680755 -117.865620 208 59ft 40kts
30-Oct-20 16:10 33.650977 -117.884201 201 1358ft 145kts
30-Oct-20 16:11 33.609491 -117.886195 185 3152ft 156kts
30-Oct-20 16:12 33.587078 -117.919715 309 4608ft 162kts
30-Oct-20 16:13 33.631262 -117.940802 338 5952ft 171kts
30-Oct-20 16:14 33.684180 -117.971436 332 5969ft 211kts
30-Oct-20 16:15 33.734076 -118.013699 325 5949ft 216kts
30-Oct-20 16:16 33.784296 -118.060632 293 5926ft 232kts
30-Oct-20 16:17 33.803969 -118.135845 286 5936ft 234kts
30-Oct-20 16:18 33.822848 -118.210126 288 5938ft 222kts
30-Oct-20 16:19 33.841396 -118.283276 288 5934ft 220kts
30-Oct-20 16:20 33.863055 -118.356625 318 5935ft 218kts
30-Oct-20 16:21 33.910051 -118.407281 319 5941ft 218kts
30-Oct-20 16:22 33.944132 -118.466484 292 5941ft 220kts
30-Oct-20 16:23 33.966240 -118.535573 292 5941ft 219kts
30-Oct-20 16:24 33.988488 -118.605410 292 5942ft 219kts
30-Oct-20 16:25 34.010487 -118.674637 292 5946ft 219kts
30-Oct-20 16:26 34.032297 -118.743427 292 5951ft 219kts
30-Oct-20 16:27 34.052050 -118.813277 289 5957ft 220kts
30-Oct-20 16:28 34.070890 -118.883650 289 5959ft 220kts
30-Oct-20 16:29 34.089679 -118.954033 289 5959ft 220kts
30-Oct-20 16:30 34.108447 -119.024528 289 5959ft 220kts
30-Oct-20 16:31 34.132972 -119.092015 297 5955ft 220kts
30-Oct-20 16:32 34.160594 -119.157905 297 5953ft 219kts
30-Oct-20 16:33 34.188568 -119.224683 297 5189ft 224kts
30-Oct-20 16:34 34.215676 -119.289572 297 4021ft 213kts
30-Oct-20 16:35 34.243545 -119.356401 297 3932ft 221kts
30-Oct-20 16:36 34.271349 -119.423162 297 3089ft 211kts
30-Oct-20 16:37 34.296222 -119.483062 297 3007ft 191kts
30-Oct-20 16:38 34.320779 -119.544171 295 3075ft 209kts
30-Oct-20 16:39 34.344595 -119.605575 295 2136ft 197kts
30-Oct-20 16:40 34.367527 -119.664837 294 2101ft 194kts
30-Oct-20 16:41 34.389374 -119.723398 293 1864ft 167kts
30-Oct-20 16:42 34.405772 -119.766553 293 1181ft 137kts
30-Oct-20 16:43 34.422253 -119.805994 295 669ft 122kts
30-Oct-20 16:44 34.427802 -119.839135 270 12ft 58kts
30-Oct-20 16:45 34.423952 -119.840546 163 13ft 25kts
30-Oct-20 16:46 34.423484 -119.840015 120 13ft 0kts
30-Oct-20 16:47 34.423483 -119.840014 120 13ft 0kts

Navigation Log

Ident Type
Flight plan parsing failed, navigation log unavailable